Time;durP1;ratioP1;P1;durP2;ratioP2;P2;SDS_P1;SDS_P2;PMS_P1;PMS_P2;Temp;Humidity;BMP_temperature;BMP_pressure;BME280_temperature;BME280_humidity;BME280_pressure;Samples;Min_cycle;Max_cycle;Signal;HPM_P1;HPM_P2
2023/01/04 00:01:21;;;;;;;0.90;0.90;;;5.30;80.40;;;4.19;68.98;96190.41;5015245;28;20683;-35
2023/01/04 00:03:49;;;;;;;0.70;0.70;;;5.30;80.30;;;4.19;68.83;96181.78;5014311;28;20193;-35
2023/01/04 00:06:17;;;;;;;0.70;0.70;;;5.30;80.50;;;4.19;69.09;96192.16;5014884;28;20197;-36
2023/01/04 00:08:45;;;;;;;0.80;0.80;;;5.30;80.70;;;4.20;69.55;96183.44;5015128;28;20197;-37
2023/01/04 00:11:19;;;;;;;0.80;0.80;;;5.30;80.80;;;4.22;69.11;96184.16;5018378;28;20628;-35
2023/01/04 00:13:52;;;;;;;0.70;0.70;;;5.30;80.80;;;4.23;69.30;96175.41;5019313;28;20643;-35
2023/01/04 00:16:23;;;;;;;0.70;0.70;;;5.20;81.00;;;4.24;69.22;96177.06;5019162;28;20197;-35
2023/01/04 00:18:51;;;;;;;0.80;0.80;;;5.20;81.00;;;4.23;69.11;96178.81;5019368;28;20562;-35
2023/01/04 00:21:22;;;;;;;0.88;0.88;;;5.30;81.00;;;4.23;69.11;96176.22;5019459;28;20212;-35
2023/01/04 00:23:52;;;;;;;0.70;0.70;;;5.30;80.90;;;4.22;69.39;96173.75;5018634;28;20595;-35
2023/01/04 00:26:32;;;;;;;0.70;0.70;;;5.30;80.80;;;4.22;69.28;96173.75;5019417;28;20189;-35
2023/01/04 00:29:05;;;;;;;0.80;0.80;;;5.20;81.00;;;4.23;69.68;96175.41;5034720;28;20204;-35
2023/01/04 00:31:33;;;;;;;0.70;0.70;;;5.30;81.00;;;4.26;69.37;96173.41;5018876;28;20266;-35
2023/01/04 00:34:03;;;;;;;0.80;0.80;;;5.30;81.80;;;4.26;69.58;96170.81;5017600;28;20263;-39
2023/01/04 00:36:31;;;;;;;0.77;0.77;;;5.30;81.00;;;4.27;69.48;96158.63;5019134;28;20189;-35
2023/01/04 00:39:06;;;;;;;0.80;0.80;;;5.30;81.00;;;4.27;69.15;96167.25;5018954;28;20670;-36
2023/01/04 00:41:45;;;;;;;0.70;0.70;;;5.30;81.00;;;4.26;69.26;96162.16;5018192;28;20587;-35
2023/01/04 00:44:26;;;;;;;0.80;0.80;;;5.30;80.80;;;4.23;69.29;96160.63;5018514;28;20197;-35
2023/01/04 00:46:53;;;;;;;0.70;0.70;;;5.30;80.70;;;4.21;69.18;96154.75;5018662;28;20208;-36
2023/01/04 00:49:21;;;;;;;0.80;0.80;;;5.30;80.60;;;4.21;68.99;96153.94;5018533;28;20189;-35
2023/01/04 00:51:48;;;;;;;0.80;0.80;;;5.30;80.30;;;4.16;68.83;96157.72;5018703;28;20619;-35
2023/01/04 00:54:16;;;;;;;0.80;0.80;;;5.30;80.30;;;4.14;69.06;96153.59;5018255;28;20668;-38
2023/01/04 00:56:44;;;;;;;0.75;0.75;;;5.30;80.20;;;4.10;68.74;96149.56;5033847;28;20198;-36
2023/01/04 00:59:13;;;;;;;0.80;0.80;;;5.20;80.20;;;4.09;68.93;96153.09;5017889;28;20223;-36
2023/01/04 01:01:41;;;;;;;0.80;0.80;;;5.20;80.30;;;4.06;69.25;96151.59;5018530;28;20216;-35
2023/01/04 01:04:14;;;;;;;0.80;0.80;;;5.20;80.50;;;4.06;69.36;96156.78;5018412;28;20197;-38
2023/01/04 01:06:41;;;;;;;0.80;0.80;;;5.10;80.60;;;4.05;69.19;96160.31;5017407;28;20177;-36
2023/01/04 01:09:09;;;;;;;0.90;0.90;;;5.20;80.50;;;4.05;68.56;96160.31;5033656;28;20202;-36
2023/01/04 01:11:37;;;;;;;0.90;0.90;;;5.20;80.30;;;4.01;68.92;96169.28;5018101;28;20632;-36
2023/01/04 01:14:07;;;;;;;0.80;0.80;;;5.20;80.10;;;3.97;68.55;96162.72;5017931;28;20213;-35
2023/01/04 01:16:34;;;;;;;0.80;0.80;;;5.20;80.00;;;3.93;68.40;96169.06;5018090;28;20269;-35
2023/01/04 01:19:22;;;;;;;0.90;0.90;;;5.10;79.70;;;3.88;68.93;96166.00;5017528;28;20177;-36
2023/01/04 01:21:48;;;;;;;0.70;0.70;;;5.10;79.90;;;3.87;68.85;96159.16;5017042;28;20213;-39
2023/01/04 01:24:18;;;;;;;0.70;0.70;;;5.10;79.90;;;3.83;68.87;96164.59;5017641;28;20244;-38
2023/01/04 01:26:45;;;;;;;0.80;0.80;;;5.00;80.00;;;3.81;68.84;96158.69;5018087;28;20182;-35
2023/01/04 01:29:12;;;;;;;0.80;0.80;;;5.00;80.00;;;3.82;68.60;96165.53;5017778;28;20640;-36
2023/01/04 01:31:40;;;;;;;0.80;0.80;;;5.00;80.00;;;3.82;68.77;96164.69;5018120;28;20201;-35
2023/01/04 01:34:08;;;;;;;0.90;0.90;;;5.00;80.00;;;3.81;69.29;96166.47;5017446;28;20232;-35
2023/01/04 01:36:36;;;;;;;0.90;0.90;;;4.90;80.10;;;3.84;69.11;96168.00;5017608;28;20323;-35
2023/01/04 01:39:05;;;;;;;0.80;0.80;;;5.00;80.30;;;3.84;68.89;96168.00;5017586;28;20687;-38
2023/01/04 01:41:34;;;;;;;0.80;0.80;;;4.90;80.20;;;3.80;68.66;96162.22;5016813;28;20197;-37
2023/01/04 01:44:41;;;;;;;0.80;0.80;;;4.90;80.90;;;3.77;68.55;96166.84;5017762;28;20280;-39
2023/01/04 01:47:41;;;;;;;0.70;0.70;;;5.00;80.10;;;3.74;68.39;96165.31;5017547;28;20220;-37
2023/01/04 01:50:27;;;;;;;0.80;0.80;;;4.90;80.00;;;3.69;68.33;96157.88;5017155;28;20189;-37
2023/01/04 01:52:58;;;;;;;0.70;0.70;;;4.90;79.80;;;3.66;68.21;96159.88;5016781;28;20288;-38
2023/01/04 01:55:27;;;;;;;0.80;0.80;;;4.90;79.60;;;3.62;68.50;96154.09;5017317;28;20576;-36
2023/01/04 01:57:55;;;;;;;0.80;0.80;;;4.90;79.50;;;3.58;68.40;96151.88;5017216;28;20548;-50
2023/01/04 02:00:22;;;;;;;0.90;0.90;;;4.90;79.50;;;3.56;68.21;96157.16;5032688;28;20204;-35
2023/01/04 02:03:20;;;;;;;0.80;0.80;;;4.80;79.40;;;3.50;68.20;96145.50;5017120;28;20272;-36
2023/01/04 02:05:51;;;;;;;0.90;0.90;;;4.80;79.40;;;3.47;68.16;96148.31;5013449;28;20291;-36
2023/01/04 02:08:21;;;;;;;0.90;0.90;;;4.80;79.20;;;3.42;68.03;96147.00;5016330;28;20196;-35
2023/01/04 02:10:48;;;;;;;0.70;0.70;;;4.70;79.00;;;3.34;67.80;96142.41;5016151;28;20273;-36
2023/01/04 02:13:22;;;;;;;0.70;0.70;;;4.70;78.90;;;3.28;68.02;96135.09;5032422;28;20624;-36
2023/01/04 02:16:26;;;;;;;0.70;0.70;;;4.60;78.80;;;3.21;67.86;96132.16;5015814;28;20188;-36
2023/01/04 02:19:34;;;;;;;0.80;0.80;;;4.60;79.00;;;3.16;67.93;96129.91;5016914;28;20675;-36
2023/01/04 02:22:20;;;;;;;0.80;0.80;;;4.50;79.10;;;3.13;68.36;96132.72;5016615;28;20189;-36
2023/01/04 02:25:36;;;;;;;0.70;0.70;;;4.50;79.10;;;3.10;68.42;96124.34;5016436;28;20272;-36
2023/01/04 02:28:40;;;;;;;0.90;0.90;;;4.40;79.30;;;3.08;68.69;96134.03;5016601;28;20212;-35
2023/01/04 02:31:52;;;;;;;0.70;0.70;;;4.40;79.40;;;3.06;68.37;96123.75;5016920;28;20181;-35
2023/01/04 02:34:34;;;;;;;0.80;0.80;;;4.30;79.60;;;3.07;68.82;96127.19;5015170;28;20221;-36
2023/01/04 02:37:08;;;;;;;0.70;0.70;;;4.30;79.70;;;3.08;69.13;96132.25;5016518;28;20664;-36
2023/01/04 02:40:07;;;;;;;0.90;0.90;;;4.30;80.70;;;3.11;68.61;96126.81;5016862;28;20185;-36
2023/01/04 02:45:53;;;;;;;0.73;0.73;;;4.30;80.30;;;3.16;69.57;96118.69;5016278;28;20197;-36
2023/01/04 02:51:35;;;;;;;0.80;0.80;;;4.30;80.90;;;3.18;69.64;96094.31;5016290;28;20177;-35
2023/01/04 02:54:13;;;;;;;0.80;0.80;;;4.30;81.20;;;3.31;69.62;96107.16;5016195;28;20224;-36
2023/01/04 02:57:28;;;;;;;0.80;0.80;;;4.40;81.20;;;3.34;69.29;96090.53;5015511;28;20186;-36
2023/01/04 03:00:07;;;;;;;0.70;0.70;;;4.40;81.00;;;3.37;69.28;96092.91;5016079;28;20200;-36
2023/01/04 03:06:22;;;;;;;0.70;0.70;;;4.50;80.50;;;3.32;68.81;96085.47;5015045;28;20645;-36
2023/01/04 03:09:22;;;;;;;0.90;0.90;;;4.50;80.50;;;3.30;69.03;96095.13;5016183;28;20528;-36
2023/01/04 03:15:09;;;;;;;0.70;0.70;;;4.50;80.50;;;3.33;69.72;96084.53;5015303;28;20644;-36
2023/01/04 03:18:13;;;;;;;0.80;0.80;;;4.40;80.80;;;3.40;70.19;96084.06;5014950;28;20177;-35
2023/01/04 03:20:42;;;;;;;0.80;0.80;;;4.40;81.30;;;3.47;70.40;96080.06;5014984;28;20620;-36
2023/01/04 03:35:22;;;;;;;0.80;0.80;;;4.70;80.70;;;3.63;68.81;96072.72;5031002;28;20299;-36
2023/01/04 03:50:02;;;;;;;0.80;0.80;;;4.60;79.40;;;3.24;68.72;96043.75;5014885;28;20189;-36
2023/01/04 03:52:32;;;;;;;0.70;0.70;;;4.60;79.60;;;3.25;69.10;96041.97;5014436;28;20217;-36
2023/01/04 03:55:01;;;;;;;0.80;0.80;;;4.50;80.00;;;3.31;69.43;96038.94;5014369;28;20265;-36
2023/01/04 03:57:30;;;;;;;0.90;0.90;;;4.50;80.40;;;3.35;69.15;96043.75;5014603;28;20200;-36
2023/01/04 04:00:08;;;;;;;0.80;0.80;;;4.50;80.30;;;3.32;68.13;96045.75;5015177;28;20205;-36
2023/01/04 04:02:38;;;;;;;0.80;0.80;;;4.50;79.90;;;3.20;67.96;96040.56;5015325;28;20243;-36
2023/01/04 04:10:38;;;;;;;0.80;0.80;;;4.40;78.70;;;2.91;67.64;96036.81;5015764;28;20251;-36
2023/01/04 04:13:05;;;;;;;0.90;0.90;;;4.40;78.60;;;2.85;68.00;96046.66;5030561;28;20275;-35
2023/01/04 04:15:32;;;;;;;0.80;0.80;;;4.30;78.60;;;2.80;67.83;96045.38;5014810;28;20213;-35
2023/01/04 04:17:59;;;;;;;0.90;0.90;;;4.20;78.70;;;2.77;68.29;96046.44;5015016;28;20228;-35
2023/01/04 04:20:26;;;;;;;0.80;0.80;;;4.20;78.90;;;2.69;68.02;96041.81;5015079;28;20625;-36
2023/01/04 04:22:53;;;;;;;0.80;0.80;;;4.10;78.80;;;2.69;68.64;96046.19;5014129;28;20263;-36
2023/01/04 04:25:20;;;;;;;0.80;0.80;;;4.10;79.20;;;2.70;68.33;96042.66;5013798;28;20240;-36
2023/01/04 04:27:47;;;;;;;0.90;0.90;;;4.00;79.20;;;2.67;68.46;96045.47;5015068;28;20201;-39
2023/01/04 04:30:14;;;;;;;0.82;0.82;;;4.00;79.50;;;2.69;69.09;96041.00;5014965;28;20201;-38
2023/01/04 04:32:42;;;;;;;0.80;0.80;;;4.00;79.90;;;2.74;69.17;96035.50;5015307;28;20201;-36
2023/01/04 04:35:09;;;;;;;0.80;0.80;;;4.00;80.10;;;2.78;69.13;96034.31;5014903;28;20221;-36
2023/01/04 04:37:36;;;;;;;0.80;0.80;;;4.00;80.20;;;2.79;68.63;96026.41;5014010;28;20212;-36
2023/01/04 04:40:05;;;;;;;0.90;0.90;;;4.00;79.90;;;2.75;68.12;96025.00;5014877;28;20247;-36
2023/01/04 04:42:32;;;;;;;0.80;0.80;;;4.00;79.40;;;2.67;67.75;96030.78;5014796;28;20186;-36
2023/01/04 04:44:59;;;;;;;0.90;0.90;;;4.00;79.10;;;2.58;67.51;96034.03;5014653;28;20197;-36
2023/01/04 04:47:26;;;;;;;0.80;0.80;;;4.00;78.70;;;2.50;67.20;96033.78;5015035;28;20593;-36
2023/01/04 04:49:53;;;;;;;0.90;0.90;;;3.90;78.40;;;2.39;67.28;96026.78;5014171;28;20201;-36
2023/01/04 04:52:20;;;;;;;0.70;0.70;;;3.90;78.40;;;2.32;67.55;96030.78;5014951;28;20206;-36
2023/01/04 04:54:47;;;;;;;0.80;0.80;;;3.80;78.40;;;2.26;67.42;96024.31;5014591;28;20271;-36
2023/01/04 04:57:14;;;;;;;0.80;0.80;;;3.70;78.30;;;2.23;67.96;96032.28;5033214;28;20208;-35
2023/01/04 04:59:41;;;;;;;0.90;0.90;;;3.70;78.60;;;2.21;67.96;96031.56;5018390;28;20194;-36
2023/01/04 05:02:09;;;;;;;0.80;0.80;;;3.60;78.60;;;2.16;67.75;96026.75;5033867;28;20285;-36
2023/01/04 05:04:36;;;;;;;0.90;0.90;;;3.60;78.50;;;2.10;67.47;96022.00;5018308;28;20252;-36
2023/01/04 05:07:03;;;;;;;0.90;0.90;;;3.50;78.40;;;2.05;67.42;96026.69;5018011;28;20202;-35
2023/01/04 05:09:38;;;;;;;0.80;0.80;;;3.50;78.20;;;1.97;67.08;96027.25;5018192;28;20181;-35
2023/01/04 05:14:51;;;;;;;0.90;0.90;;;3.40;78.00;;;1.80;66.94;96025.88;5018052;28;20202;-36
2023/01/04 05:17:18;;;;;;;0.90;0.90;;;3.30;77.90;;;1.73;67.66;96015.16;5000857;28;20204;-35
2023/01/04 05:19:45;;;;;;;0.95;0.95;;;3.30;78.00;;;1.69;67.79;96011.09;5018535;28;20198;-35
2023/01/04 05:22:12;;;;;;;0.80;0.80;;;3.20;78.20;;;1.71;68.47;96011.00;5018224;28;20201;-35
2023/01/04 05:24:39;;;;;;;0.80;0.80;;;3.20;78.60;;;1.76;69.10;96009.75;5017698;28;20243;-36
2023/01/04 05:27:06;;;;;;;0.93;0.93;;;3.10;78.90;;;1.84;69.24;96006.59;5017888;28;20212;-35
2023/01/04 05:32:19;;;;;;;0.80;0.80;;;3.20;79.70;;;2.08;69.53;96005.75;5018118;28;20489;-36
2023/01/04 05:34:46;;;;;;;0.90;0.90;;;3.20;79.90;;;2.15;69.23;95999.19;5033156;28;20535;-36
2023/01/04 05:37:13;;;;;;;0.90;0.90;;;3.20;80.00;;;2.23;69.51;96002.06;5017782;28;20288;-36
2023/01/04 05:39:40;;;;;;;0.90;0.90;;;3.30;80.10;;;2.31;69.54;95996.31;5017601;28;20212;-36
2023/01/04 05:42:26;;;;;;;0.95;0.95;;;3.40;80.30;;;2.39;69.62;95995.72;5017535;28;20695;-36
2023/01/04 05:44:56;;;;;;;0.80;0.80;;;3.40;80.30;;;2.46;69.41;95993.53;5003425;28;20608;-36
2023/01/04 05:47:24;;;;;;;0.70;0.70;;;3.50;80.20;;;2.50;68.52;95992.34;5016462;28;20212;-36
2023/01/04 05:49:51;;;;;;;0.80;0.80;;;3.60;80.00;;;2.49;68.57;95983.75;5016695;28;20220;-36
2023/01/04 05:52:20;;;;;;;0.90;0.90;;;3.60;80.00;;;2.48;68.32;95986.44;5017597;28;20201;-36
2023/01/04 05:54:47;;;;;;;0.80;0.80;;;3.70;79.80;;;2.47;68.36;95983.03;5017506;28;20600;-36
2023/01/04 05:57:15;;;;;;;0.90;0.90;;;3.70;79.70;;;2.44;68.17;95983.28;5017376;28;20201;-36
2023/01/04 05:59:42;;;;;;;0.90;0.90;;;3.70;79.50;;;2.39;68.23;95978.44;5016346;28;20197;-36
2023/01/04 06:02:29;;;;;;;0.80;0.80;;;3.70;79.30;;;2.33;68.33;95975.47;5017615;28;20620;-36
2023/01/04 06:04:59;;;;;;;0.80;0.80;;;3.70;79.40;;;2.36;69.10;95985.63;5017332;28;20206;-36
2023/01/04 06:07:29;;;;;;;0.80;0.80;;;3.60;79.50;;;2.42;69.65;95979.13;5016405;28;20197;-36
2023/01/04 06:09:56;;;;;;;0.80;0.80;;;3.70;79.80;;;2.48;69.32;95976.94;5017408;28;20196;-35
2023/01/04 06:12:23;;;;;;;0.90;0.90;;;3.70;79.80;;;2.52;69.33;95975.75;5016975;28;20209;-36
2023/01/04 06:14:50;;;;;;;0.90;0.90;;;3.70;80.00;;;2.56;69.66;95982.34;5016851;28;20263;-36
2023/01/04 06:17:18;;;;;;;0.90;0.90;;;3.70;80.00;;;2.61;69.62;95966.44;5016775;28;20272;-36
2023/01/04 06:19:45;;;;;;;0.80;0.80;;;3.80;80.10;;;2.67;70.10;95968.59;5017061;28;20244;-36
2023/01/04 06:22:13;;;;;;;0.80;0.80;;;3.80;80.30;;;2.74;70.24;95974.13;5016788;28;20198;-36
2023/01/04 06:24:40;;;;;;;0.70;0.70;;;3.80;80.50;;;2.83;70.05;95967.41;5016969;28;20262;-36
2023/01/04 06:27:07;;;;;;;0.80;0.80;;;3.90;80.60;;;2.90;70.28;95967.78;5016817;28;20205;-36
2023/01/04 06:29:34;;;;;;;0.70;0.70;;;3.90;80.70;;;2.97;70.59;95962.00;5016661;28;20193;-36
2023/01/04 06:32:01;;;;;;;0.80;0.80;;;4.00;81.10;;;3.01;70.52;95960.81;5016971;28;20276;-36
2023/01/04 06:34:28;;;;;;;0.80;0.80;;;4.00;81.40;;;3.10;70.54;95958.44;5016762;28;20193;-36
2023/01/04 06:36:58;;;;;;;0.80;0.80;;;4.00;81.70;;;3.17;70.40;95957.03;5016365;28;20200;-36
2023/01/04 06:39:25;;;;;;;0.73;0.73;;;4.10;81.90;;;3.24;71.08;95958.19;5032087;28;20201;-36
2023/01/04 06:41:52;;;;;;;0.70;0.70;;;4.10;82.30;;;3.31;70.67;95955.97;5016413;28;20251;-36
2023/01/04 06:44:19;;;;;;;0.80;0.80;;;4.20;82.50;;;3.37;70.58;95947.69;5016644;28;20204;-36
2023/01/04 06:46:46;;;;;;;0.80;0.80;;;4.30;82.50;;;3.44;70.61;95935.91;5016227;28;20197;-36
2023/01/04 06:49:13;;;;;;;0.85;0.85;;;4.30;82.30;;;3.48;70.18;95942.47;5031793;28;20197;-36
2023/01/04 06:51:40;;;;;;;0.77;0.77;;;4.40;82.40;;;3.53;70.19;95947.31;5016283;28;20201;-36
2023/01/04 06:54:10;;;;;;;1.00;1.00;;;4.50;82.30;;;3.55;70.01;95939.38;5016654;28;20510;-36
2023/01/04 06:56:39;;;;;;;0.80;0.80;;;4.50;82.20;;;3.56;69.95;95941.84;5015671;28;20235;-36
2023/01/04 06:59:08;;;;;;;0.80;0.80;;;4.50;82.00;;;3.58;69.96;95934.78;5016145;28;20656;-36
2023/01/04 07:01:35;;;;;;;0.80;0.80;;;4.60;81.90;;;3.61;69.82;95933.72;5016175;28;20193;-36
2023/01/04 07:04:03;;;;;;;0.80;0.80;;;4.60;81.80;;;3.63;69.50;95937.81;5016065;28;20284;-38
2023/01/04 07:06:30;;;;;;;0.80;0.80;;;4.60;81.50;;;3.64;69.40;95934.28;5016323;28;20193;-35
2023/01/04 07:08:57;;;;;;;0.70;0.70;;;4.70;81.30;;;3.63;69.00;95937.00;5015985;28;20193;-35
2023/01/04 07:11:24;;;;;;;0.70;0.70;;;4.70;81.10;;;3.60;68.83;95927.72;5015970;28;20197;-38
2023/01/04 07:13:51;;;;;;;0.73;0.73;;;4.70;80.80;;;3.58;69.27;95931.38;5016137;28;20193;-36
2023/01/04 07:16:19;;;;;;;0.77;0.77;;;4.70;80.70;;;3.58;68.99;95931.38;5015803;28;20224;-36
2023/01/04 07:18:47;;;;;;;0.70;0.70;;;4.70;80.60;;;3.57;69.07;95927.94;5015452;28;20221;-40
2023/01/04 07:21:14;;;;;;;0.80;0.80;;;4.70;80.70;;;3.56;69.10;95928.06;4998386;28;20620;-38
2023/01/04 07:23:41;;;;;;;0.80;0.80;;;4.70;80.60;;;3.57;69.04;95933.13;5015813;28;20202;-46
2023/01/04 07:26:08;;;;;;;0.80;0.80;;;4.70;80.60;;;3.56;69.07;95926.28;5015432;28;20687;-40
2023/01/04 07:31:20;;;;;;;0.60;0.60;;;4.70;80.60;;;3.57;69.29;95930.53;5015625;28;20185;-39
2023/01/04 07:33:50;;;;;;;0.77;0.77;;;4.70;80.60;;;3.58;69.30;95931.38;5015798;28;20225;-42
2023/01/04 07:36:18;;;;;;;0.90;0.90;;;4.70;80.60;;;3.60;69.54;95934.66;5014490;28;20224;-39
2023/01/04 07:38:45;;;;;;;0.90;0.90;;;4.70;80.90;;;3.67;69.78;95931.47;5015038;28;20190;-38
2023/01/04 07:41:12;;;;;;;0.75;0.75;;;4.70;81.10;;;3.72;69.76;95932.84;5031001;28;20204;-43
2023/01/04 07:43:39;;;;;;;0.70;0.70;;;4.70;81.20;;;3.78;69.92;95924.56;5030995;28;20232;-35
2023/01/04 07:46:06;;;;;;;0.90;0.90;;;4.80;81.30;;;3.84;69.99;95932.69;5015253;28;20194;-36
2023/01/04 07:48:33;;;;;;;0.80;0.80;;;4.80;81.40;;;3.91;69.95;95921.81;5015971;28;20263;-35
2023/01/04 07:51:00;;;;;;;0.70;0.70;;;4.90;81.50;;;3.96;69.89;95925.66;5015326;28;20544;-36
2023/01/04 07:53:28;;;;;;;0.80;0.80;;;4.90;81.50;;;4.03;69.76;95918.19;5014573;28;20197;-40
2023/01/04 07:55:57;;;;;;;0.60;0.60;;;5.00;81.60;;;4.08;69.42;95920.44;5015413;28;20243;-37
2023/01/04 07:58:25;;;;;;;0.70;0.70;;;5.00;81.50;;;4.12;69.46;95908.81;5015267;28;20624;-35
2023/01/04 08:00:52;;;;;;;0.70;0.70;;;5.10;81.40;;;4.16;69.45;95908.44;5015249;28;20190;-38
2023/01/04 08:03:19;;;;;;;0.80;0.80;;;5.10;81.40;;;4.20;69.30;95914.22;5014546;28;20665;-36
2023/01/04 08:05:46;;;;;;;0.80;0.80;;;5.20;81.30;;;4.23;69.12;95910.53;5015476;28;20197;-36
2023/01/04 08:08:14;;;;;;;0.80;0.80;;;5.20;81.20;;;4.27;69.53;95910.16;5015630;28;20632;-41
2023/01/04 08:10:41;;;;;;;0.90;0.90;;;5.30;81.20;;;4.30;69.39;95917.69;5015142;28;20197;-36
2023/01/04 08:13:08;;;;;;;0.70;0.70;;;5.30;81.20;;;4.35;69.48;95912.09;5015123;28;20204;-39
2023/01/04 08:15:35;;;;;;;0.70;0.70;;;5.30;81.20;;;4.38;69.59;95914.47;5015004;28;20217;-45
2023/01/04 08:18:03;;;;;;;0.80;0.80;;;5.40;81.30;;;4.45;69.60;95904.38;5014929;28;20228;-34
2023/01/04 08:20:30;;;;;;;0.90;0.90;;;5.40;81.30;;;4.49;69.58;95900.53;5015160;28;20200;-36
2023/01/04 08:22:57;;;;;;;0.70;0.70;;;5.40;81.30;;;4.56;69.59;95901.69;5015147;28;20657;-38
2023/01/04 08:25:24;;;;;;;0.70;0.70;;;5.40;81.50;;;4.66;69.66;95904.31;5014995;28;20723;-35
2023/01/04 08:27:51;;;;;;;0.70;0.70;;;5.50;81.60;;;4.78;69.90;95895.47;5015133;28;20216;-38
2023/01/04 08:30:18;;;;;;;0.70;0.70;;;5.50;81.80;;;4.90;69.81;95887.59;5014432;28;20197;-37
2023/01/04 08:32:45;;;;;;;0.70;0.70;;;5.60;82.00;;;5.01;69.90;95882.28;5019000;28;20225;-37
2023/01/04 08:35:13;;;;;;;0.80;0.80;;;5.70;82.10;;;5.08;69.79;95883.38;5018787;28;20197;-42
2023/01/04 08:37:40;;;;;;;0.70;0.70;;;5.80;82.20;;;5.23;69.87;95883.81;5018893;28;20189;-39
2023/01/04 08:40:08;;;;;;;0.70;0.70;;;5.90;82.40;;;5.34;69.75;95879.47;5018025;28;20208;-38
2023/01/04 08:42:35;;;;;;;0.70;0.70;;;6.00;82.50;;;5.45;69.64;95872.34;5018751;28;20196;-39
2023/01/04 08:45:03;;;;;;;0.80;0.80;;;6.10;82.50;;;5.56;69.78;95876.59;5018645;28;20323;-38
2023/01/04 08:47:31;;;;;;;0.80;0.80;;;6.20;82.50;;;5.70;69.80;95882.34;5018507;28;20208;-41
2023/01/04 08:49:59;;;;;;;0.80;0.80;;;6.20;82.50;;;5.75;69.74;95873.19;5018555;28;20284;-38
2023/01/04 08:52:36;;;;;;;0.70;0.70;;;6.30;82.40;;;5.92;69.69;95860.44;5017857;28;20181;-38
2023/01/04 08:55:03;;;;;;;0.70;0.70;;;6.40;82.50;;;6.04;69.67;95861.09;5018567;28;20220;-39
2023/01/04 08:57:38;;;;;;;0.70;0.70;;;6.50;82.50;;;6.18;69.74;95865.06;5018755;28;20177;-37
2023/01/04 09:00:06;;;;;;;0.80;0.80;;;6.60;83.20;;;6.30;69.41;95868.31;5018427;28;20225;-37
2023/01/04 09:02:34;;;;;;;0.70;0.70;;;6.70;82.50;;;6.37;69.43;95867.63;5018196;28;20209;-37
2023/01/04 09:05:02;;;;;;;0.70;0.70;;;6.80;82.30;;;6.45;69.02;95856.47;5018289;28;20529;-36
2023/01/04 09:07:31;;;;;;;0.80;0.80;;;6.90;82.10;;;6.56;69.04;95864.13;5018169;28;20574;-36
2023/01/04 09:10:01;;;;;;;0.70;0.70;;;7.00;82.10;;;6.67;68.76;95864.91;5018246;28;20186;-37
2023/01/04 09:12:29;;;;;;;0.70;0.70;;;7.10;81.80;;;6.78;68.59;95854.28;5018345;28;20181;-38
2023/01/04 09:14:56;;;;;;;0.70;0.70;;;7.20;81.90;;;6.89;68.61;95848.88;5017982;28;20243;-43
2023/01/04 09:17:24;;;;;;;0.70;0.70;;;7.30;81.80;;;7.02;68.09;95855.56;5018226;28;20545;-37
2023/01/04 09:19:51;;;;;;;0.70;0.70;;;7.40;81.50;;;7.13;67.97;95850.13;5018135;28;20194;-41
2023/01/04 09:22:18;;;;;;;0.70;0.70;;;7.50;81.40;;;7.25;68.01;95847.28;5017915;28;20545;-36
2023/01/04 09:24:45;;;;;;;0.77;0.77;;;7.70;81.50;;;7.28;67.82;95854.84;5017247;28;20291;-36
2023/01/04 09:27:13;;;;;;;0.80;0.80;;;7.80;81.40;;;7.34;67.76;95852.44;5017075;28;20670;-37
2023/01/04 09:29:40;;;;;;;0.70;0.70;;;7.90;81.30;;;7.39;67.59;95852.00;5017001;28;20194;-47
2023/01/04 09:32:07;;;;;;;0.70;0.70;;;8.00;81.10;;;7.48;67.75;95847.69;5017787;28;20193;-37
2023/01/04 09:34:43;;;;;;;0.70;0.70;;;8.00;81.10;;;7.56;67.83;95837.31;5017939;28;20185;-38
2023/01/04 09:37:10;;;;;;;0.80;0.80;;;8.10;81.10;;;7.65;67.79;95828.59;5017585;28;20216;-46
2023/01/04 09:39:37;;;;;;;0.80;0.80;;;8.20;81.20;;;7.71;67.71;95821.94;5017671;28;20189;-46
2023/01/04 09:42:19;;;;;;;0.70;0.70;;;8.30;81.20;;;7.80;67.66;95828.03;5017068;28;20201;-36
2023/01/04 09:44:51;;;;;;;0.70;0.70;;;8.30;80.90;;;7.88;67.75;95822.88;5016919;28;20589;-36
2023/01/04 09:47:54;;;;;;;0.70;0.70;;;8.40;81.90;;;7.94;67.51;95817.03;5017686;28;20616;-37
2023/01/04 09:50:33;;;;;;;0.70;0.70;;;8.40;81.00;;;7.99;67.01;95811.34;5017721;28;20186;-36
2023/01/04 09:53:10;;;;;;;0.77;0.77;;;8.50;80.40;;;8.05;67.10;95807.31;5016622;28;20200;-39
2023/01/04 09:55:47;;;;;;;0.80;0.80;;;8.50;80.70;;;8.08;66.21;95800.00;5017351;28;20647;-37
2023/01/04 09:58:31;;;;;;;0.80;0.80;;;8.60;80.20;;;8.17;66.92;95800.88;5017238;28;20174;-36
2023/01/04 10:01:13;;;;;;;0.70;0.70;;;8.60;80.20;;;8.21;66.37;95796.94;5016587;28;20593;-39
2023/01/04 10:04:11;;;;;;;0.70;0.70;;;8.70;80.40;;;8.28;66.13;95795.34;5016696;28;20212;-37
2023/01/04 10:06:38;;;;;;;0.75;0.75;;;8.80;79.40;;;8.33;66.06;95787.88;5017390;28;20263;-42
2023/01/04 10:09:14;;;;;;;0.70;0.70;;;8.80;80.10;;;8.42;66.19;95777.44;5017782;28;20632;-40
2023/01/04 10:12:07;;;;;;;0.80;0.80;;;8.90;80.10;;;8.47;65.43;95770.81;5016361;28;20200;-37
2023/01/04 10:15:28;;;;;;;0.70;0.70;;;9.00;79.70;;;8.54;64.98;95763.16;5032603;28;20209;-40
2023/01/04 10:18:21;;;;;;;0.70;0.70;;;9.00;78.90;;;8.65;64.55;95767.28;5016881;28;20719;-36
2023/01/04 10:21:21;;;;;;;0.70;0.70;;;9.10;79.10;;;8.73;63.89;95758.66;5017358;28;20193;-42
2023/01/04 10:24:07;;;;;;;0.80;0.80;;;9.10;78.70;;;8.78;63.30;95751.16;5016163;28;20178;-39
2023/01/04 10:26:49;;;;;;;0.70;0.70;;;9.20;78.60;;;8.85;63.56;95738.22;5014340;28;20224;-42
2023/01/04 10:29:52;;;;;;;0.70;0.70;;;9.20;78.50;;;8.92;62.97;95731.38;4996643;28;20202;-38
2023/01/04 10:32:44;;;;;;;0.80;0.80;;;9.30;77.90;;;8.99;62.60;95735.00;5023884;28;20190;-40
2023/01/04 10:35:23;;;;;;;0.70;0.70;;;9.40;77.50;;;9.05;61.69;95736.16;5008530;28;20385;-39
2023/01/04 10:38:11;;;;;;;0.80;0.80;;;9.40;77.50;;;9.11;62.50;95730.28;5004584;28;20209;-38
2023/01/04 10:40:39;;;;;;;0.80;0.80;;;9.50;77.80;;;9.18;61.73;95733.03;5012096;28;20648;-37
2023/01/04 10:43:34;;;;;;;0.80;0.80;;;9.50;77.40;;;9.26;61.37;95726.03;5016619;28;20213;-39
2023/01/04 10:46:29;;;;;;;0.80;0.80;;;9.60;76.90;;;9.35;60.47;95726.84;5016416;28;20259;-48
2023/01/04 10:49:09;;;;;;;0.80;0.80;;;9.60;76.00;;;9.43;60.33;95723.41;5015980;28;20195;-40
2023/01/04 10:51:59;;;;;;;0.70;0.70;;;9.60;76.80;;;9.52;60.80;95714.56;5016636;28;20276;-36
2023/01/04 10:54:47;;;;;;;0.70;0.70;;;9.70;76.70;;;9.63;60.72;95715.19;5016026;28;20193;-41
2023/01/04 10:57:34;;;;;;;0.70;0.70;;;9.80;76.90;;;9.76;59.91;95711.09;5016159;28;20209;-37
2023/01/04 11:00:14;;;;;;;0.70;0.70;;;9.90;76.10;;;9.93;60.11;95693.50;5016386;28;20174;-42
2023/01/04 11:03:11;;;;;;;0.60;0.60;;;10.00;76.10;;;10.13;59.52;95695.78;5016822;28;20188;-36
2023/01/04 11:05:48;;;;;;;0.70;0.70;;;10.20;75.20;;;10.33;58.18;95690.13;5015746;28;20248;-39
2023/01/04 11:08:53;;;;;;;0.70;0.70;;;10.40;74.60;;;10.54;58.99;95690.34;4998088;28;20243;-37
2023/01/04 11:11:39;;;;;;;0.70;0.70;;;10.50;75.70;;;10.81;59.04;95682.97;5010579;28;20220;-41
2023/01/04 11:14:06;;;;;;;0.70;0.70;;;10.80;75.10;;;11.03;58.04;95675.28;5015933;28;20187;-37
2023/01/04 11:16:33;;;;;;;0.70;0.70;;;11.00;75.00;;;11.30;57.62;95666.06;5016583;28;20707;-36
2023/01/04 11:19:03;;;;;;;0.70;0.70;;;11.20;74.20;;;11.58;56.45;95659.41;5016139;28;20739;-37
2023/01/04 11:21:58;;;;;;;0.60;0.60;;;11.40;74.60;;;11.84;54.86;95645.84;5015839;28;20204;-36
2023/01/04 11:24:29;;;;;;;0.70;0.70;;;11.70;72.50;;;12.03;53.70;95654.19;5016242;28;20205;-38
2023/01/04 11:27:06;;;;;;;0.68;0.68;;;11.90;71.40;;;12.19;54.05;95654.00;5015056;28;20181;-36
2023/01/04 11:29:57;;;;;;;0.70;0.70;;;12.10;71.50;;;12.30;53.39;95636.91;5016286;28;20288;-36
2023/01/04 11:32:43;;;;;;;0.70;0.70;;;12.30;70.90;;;12.40;50.72;95637.47;5007251;28;20201;-36
2023/01/04 11:35:10;;;;;;;0.80;0.80;;;12.50;68.10;;;12.45;52.41;95626.34;4996585;28;20208;-36
2023/01/04 11:37:39;;;;;;;0.70;0.70;;;12.70;70.70;;;12.55;50.87;95632.16;4995719;28;20231;-36
2023/01/04 11:40:22;;;;;;;0.70;0.70;;;12.80;68.60;;;12.72;54.19;95624.00;4996279;28;20274;-36
2023/01/04 11:43:09;;;;;;;0.80;0.80;;;13.10;71.20;;;13.05;52.99;95612.97;5011316;28;20182;-36
2023/01/04 11:45:37;;;;;;;0.60;0.60;;;13.60;70.30;;;13.45;50.64;95608.84;4995239;28;20184;-36
2023/01/04 11:48:07;;;;;;;0.60;0.60;;;14.30;69.30;;;13.76;50.08;95601.53;4995610;28;20678;-36
2023/01/04 11:50:44;;;;;;;0.60;0.60;;;14.90;69.00;;;14.13;52.98;95596.03;4995843;28;20533;-36